Time;durP1;ratioP1;P1;durP2;ratioP2;P2;SDS_P1;SDS_P2;PMS_P1;PMS_P2;Temp;Humidity;BMP_temperature;BMP_pressure;BME280_temperature;BME280_humidity;BME280_pressure;Samples;Min_cycle;Max_cycle;Signal;HPM_P1;HPM_P2
2022/10/17 00:01:54;;;;;;;1.47;1.37;;;;;;;13.95;79.79;101925.19;6113387;28;20533;-65
2022/10/17 00:05:16;;;;;;;2.17;2.00;;;;;;;13.92;80.29;101939.84;6111936;28;20555;-66
2022/10/17 00:08:39;;;;;;;6.77;1.70;;;;;;;13.92;80.19;101936.28;6118161;28;20697;-66
2022/10/17 00:12:01;;;;;;;1.93;1.70;;;;;;;13.92;80.59;101942.56;6118365;28;20232;-65
2022/10/17 00:15:22;;;;;;;2.00;1.80;;;;;;;13.77;81.39;101952.00;6099648;28;20552;-65
2022/10/17 00:18:44;;;;;;;5.07;2.40;;;;;;;13.86;80.86;101964.78;6100809;28;20311;-66
2022/10/17 00:22:06;;;;;;;3.37;2.40;;;;;;;13.91;80.47;101967.97;6110593;28;20231;-66
2022/10/17 00:25:27;;;;;;;2.40;1.97;;;;;;;13.96;80.72;101973.84;6103801;28;20239;-65
2022/10/17 00:28:49;;;;;;;2.93;1.70;;;;;;;14.03;80.47;101972.34;6107450;28;20255;-65
2022/10/17 00:32:10;;;;;;;3.83;2.57;;;;;;;14.04;81.23;101965.91;6110506;28;20235;-65
2022/10/17 00:35:31;;;;;;;2.10;1.33;;;;;;;14.09;80.95;101969.09;6111194;28;20230;-67
2022/10/17 00:38:55;;;;;;;2.30;1.47;;;;;;;14.09;81.49;101969.09;6109062;28;20539;-66
2022/10/17 00:42:16;;;;;;;2.07;1.90;;;;;;;14.07;80.96;101976.50;6094625;28;20223;-66
2022/10/17 00:45:38;;;;;;;2.60;1.50;;;;;;;14.05;80.95;101954.09;6105598;28;20321;-65
2022/10/17 00:49:02;;;;;;;3.50;2.10;;;;;;;14.03;81.05;101964.22;6106627;28;20236;-66
2022/10/17 00:52:26;;;;;;;5.67;2.33;;;;;;;14.04;80.72;101973.22;6093044;28;20259;-65
2022/10/17 00:55:50;;;;;;;4.27;1.67;;;;;;;13.97;81.30;101961.16;6092897;28;20228;-65
2022/10/17 00:59:13;;;;;;;1.77;1.57;;;;;;;13.99;81.23;101962.75;6071904;29;20239;-65
2022/10/17 01:02:34;;;;;;;2.67;1.80;;;;;;;14.02;81.38;101967.03;6118580;28;20232;-66
2022/10/17 01:05:55;;;;;;;3.63;2.03;;;;;;;14.06;81.46;101980.19;6101202;28;20264;-66
2022/10/17 01:09:16;;;;;;;4.50;1.73;;;;;;;14.08;81.10;101985.50;6080486;28;20236;-66
2022/10/17 01:12:56;;;;;;;4.03;2.40;;;;;;;14.08;81.18;101994.47;6116879;28;20243;-65
2022/10/17 01:16:23;;;;;;;4.07;1.70;;;;;;;14.05;80.99;101994.75;6097154;28;21754;-66
2022/10/17 01:20:07;;;;;;;2.07;1.87;;;;;;;14.09;80.63;101985.38;6105410;28;20349;-65
2022/10/17 01:23:54;;;;;;;2.10;2.00;;;;;;;14.15;80.79;101982.13;6088259;29;20249;-66
2022/10/17 01:27:37;;;;;;;2.87;1.73;;;;;;;14.14;80.59;101980.38;6087840;28;20564;-65
2022/10/17 01:31:12;;;;;;;2.07;1.73;;;;;;;14.06;81.17;101977.47;6106784;28;20236;-66
2022/10/17 01:34:39;;;;;;;5.07;1.90;;;;;;;14.05;81.32;101975.78;6101448;28;20675;-65
2022/10/17 01:38:07;;;;;;;2.80;2.03;;;;;;;14.09;81.05;101977.22;6112098;28;20236;-65
2022/10/17 01:41:38;;;;;;;6.07;2.33;;;;;;;14.07;81.32;101967.50;6103063;28;20243;-66
2022/10/17 01:45:03;;;;;;;5.53;1.97;;;;;;;14.07;81.16;101970.22;6091731;28;20232;-66
2022/10/17 01:48:31;;;;;;;4.03;1.27;;;;;;;14.05;81.39;101967.66;6118954;28;20239;-66
2022/10/17 01:51:57;;;;;;;1.27;1.07;;;;;;;14.13;80.83;101962.41;6104035;28;20227;-66
2022/10/17 01:55:23;;;;;;;4.70;1.70;;;;;;;14.06;80.67;101958.50;6104876;28;20231;-66
2022/10/17 01:58:50;;;;;;;1.57;1.47;;;;;;;14.10;80.73;101948.28;6115877;28;20231;-65
2022/10/17 02:02:15;;;;;;;4.27;1.63;;;;;;;14.18;80.05;101940.34;6095057;28;20239;-66
2022/10/17 02:05:39;;;;;;;1.40;1.30;;;;;;;14.22;79.83;101947.19;6097171;28;20598;-64
2022/10/17 02:09:01;;;;;;;2.87;1.33;;;;;;;14.18;79.95;101943.03;6120160;28;20327;-65
2022/10/17 02:12:33;;;;;;;2.20;1.77;;;;;;;14.23;79.96;101929.91;6109897;28;20235;-65
2022/10/17 02:16:13;;;;;;;1.80;1.17;;;;;;;14.24;79.51;101928.94;6092588;28;20981;-65
2022/10/17 02:19:46;;;;;;;1.20;1.10;;;;;;;14.18;80.18;101924.91;6108794;28;20234;-66
2022/10/17 02:23:13;;;;;;;2.23;1.57;;;;;;;14.19;80.13;101931.19;6082787;29;20623;-65
2022/10/17 02:26:44;;;;;;;1.43;1.33;;;;;;;14.20;80.44;101931.06;6081116;29;20244;-66
2022/10/17 02:30:11;;;;;;;4.90;1.37;;;;;;;14.21;80.40;101930.06;6106244;28;20231;-64
2022/10/17 02:33:37;;;;;;;1.43;1.23;;;;;;;14.21;80.53;101923.78;6110447;28;20630;-66
2022/10/17 02:37:01;;;;;;;2.17;1.97;;;;;;;14.18;80.62;101918.63;6115064;28;20232;-66
2022/10/17 02:40:26;;;;;;;4.13;1.23;;;;;;;14.21;80.29;101902.06;6108218;28;20227;-66
2022/10/17 02:43:49;;;;;;;1.70;1.17;;;;;;;14.24;80.34;101899.97;6106687;28;20231;-65
2022/10/17 02:47:17;;;;;;;1.93;1.30;;;;;;;14.28;80.17;101904.16;6121822;28;20232;-66
2022/10/17 02:50:47;;;;;;;2.07;1.53;;;;;;;14.30;80.12;101901.31;6114901;28;20247;-66
2022/10/17 02:54:14;;;;;;;1.30;1.20;;;;;;;14.34;80.02;101895.47;6102265;28;20223;-66
2022/10/17 02:57:38;;;;;;;4.60;2.17;;;;;;;14.29;80.41;101888.72;6107511;28;20232;-66
2022/10/17 03:01:00;;;;;;;2.37;1.20;;;;;;;14.23;80.55;101881.97;6111177;28;20230;-65
2022/10/17 03:04:21;;;;;;;1.30;1.20;;;;;;;14.27;80.55;101877.13;6103199;28;20279;-65
2022/10/17 03:07:42;;;;;;;1.77;1.30;;;;;;;14.32;80.08;101870.34;6119229;28;20285;-66
2022/10/17 03:11:03;;;;;;;3.47;1.57;;;;;;;14.37;79.98;101870.78;6088883;28;20231;-66
2022/10/17 03:14:26;;;;;;;2.10;1.00;;;;;;;14.44;79.23;101881.94;6098735;28;20228;-66
2022/10/17 03:17:46;;;;;;;2.83;1.03;;;;;;;14.45;79.84;101871.97;6111724;28;20228;-67
2022/10/17 03:21:07;;;;;;;2.87;1.50;;;;;;;14.43;80.32;101864.81;6099901;28;20321;-66
2022/10/17 03:24:29;;;;;;;2.47;2.03;;;;;;;14.41;79.83;101874.09;6100012;28;20242;-66
2022/10/17 03:27:50;;;;;;;4.63;1.73;;;;;;;14.40;79.88;101869.66;6103098;28;20244;-66
2022/10/17 03:31:16;;;;;;;1.67;1.30;;;;;;;14.39;79.37;101860.66;6088499;28;20314;-66
2022/10/17 03:34:37;;;;;;;1.30;1.20;;;;;;;14.35;79.87;101856.50;6091385;28;20243;-66
2022/10/17 03:37:58;;;;;;;4.70;3.47;;;;;;;14.36;79.77;101857.34;6108131;28;20235;-66
2022/10/17 03:45:05;;;;;;;1.93;1.47;;;;;;;14.35;79.78;101869.22;6129607;23;20340;-66
2022/10/17 03:48:30;;;;;;;2.67;1.30;;;;;;;14.31;80.13;101868.63;6095804;28;20239;-66
2022/10/17 03:51:50;;;;;;;2.23;2.13;;;;;;;14.30;80.54;101861.50;6078310;29;20521;-66
2022/10/17 03:55:12;;;;;;;1.63;1.53;;;;;;;14.26;80.55;101868.16;6080612;29;20239;-65
2022/10/17 03:58:33;;;;;;;2.03;1.27;;;;;;;14.26;80.55;101868.16;6090578;29;20244;-66
2022/10/17 04:01:55;;;;;;;4.67;3.47;;;;;;;14.26;80.52;101854.59;6080717;29;20245;-65
2022/10/17 04:05:17;;;;;;;8.43;7.63;;;;;;;14.26;80.30;101854.59;6095166;28;20224;-66
2022/10/17 04:08:39;;;;;;;3.40;2.43;;;;;;;14.26;80.67;101849.16;6063717;28;20332;-66
2022/10/17 04:12:05;;;;;;;2.63;1.90;;;;;;;14.20;81.30;101856.97;6079197;28;20234;-66
2022/10/17 04:15:27;;;;;;;2.43;1.70;;;;;;;14.21;81.15;101864.09;6081564;29;20236;-65
2022/10/17 04:18:53;;;;;;;2.83;2.27;;;;;;;14.15;81.35;101853.78;6091953;29;20351;-66
2022/10/17 04:22:15;;;;;;;1.87;1.77;;;;;;;14.13;81.34;101850.38;6090300;29;20233;-66
2022/10/17 04:25:36;;;;;;;1.70;1.53;;;;;;;14.13;80.89;101859.38;6082155;28;20351;-67
2022/10/17 04:28:57;;;;;;;3.33;2.00;;;;;;;14.06;81.03;101858.16;6088780;29;20327;-66
2022/10/17 04:32:18;;;;;;;2.77;1.27;;;;;;;14.08;81.11;101853.47;6091560;29;20233;-66
2022/10/17 04:35:43;;;;;;;4.10;1.57;;;;;;;14.09;81.09;101854.34;6083597;29;20257;-65
2022/10/17 04:39:05;;;;;;;7.60;6.80;;;;;;;14.05;81.07;101847.47;6079462;29;20256;-67
2022/10/17 04:42:29;;;;;;;2.97;2.63;;;;;;;14.20;82.19;101844.28;6051488;28;20246;-67
2022/10/17 04:45:50;;;;;;;1.40;1.30;;;;;;;14.25;82.18;101842.00;6075529;29;20240;-68
2022/10/17 04:49:11;;;;;;;1.77;1.57;;;;;;;14.19;81.66;101842.56;6073033;29;20273;-66
2022/10/17 04:52:36;;;;;;;2.13;1.93;;;;;;;14.05;80.84;101842.91;6079854;29;20237;-66
2022/10/17 04:55:58;;;;;;;2.43;2.27;;;;;;;13.93;81.82;101835.88;6060161;28;20777;-67
2022/10/17 04:59:19;;;;;;;11.50;8.77;;;;;;;13.88;82.00;101840.81;6073376;28;20730;-67
2022/10/17 05:02:45;;;;;;;4.23;3.80;;;;;;;13.80;82.15;101827.06;6067721;28;20234;-66
2022/10/17 05:06:08;;;;;;;2.53;1.83;;;;;;;13.78;82.61;101831.78;6065091;29;20228;-66
2022/10/17 05:09:29;;;;;;;1.60;1.37;;;;;;;13.69;82.77;101835.28;6068347;29;20493;-66
2022/10/17 05:12:51;;;;;;;2.53;2.03;;;;;;;13.69;82.89;101840.69;6079625;29;20453;-65
2022/10/17 05:16:15;;;;;;;2.10;1.70;;;;;;;13.68;82.62;101835.41;6070222;29;20699;-66
2022/10/17 05:19:36;;;;;;;2.50;2.20;;;;;;;13.61;83.01;101838.66;6078393;29;20575;-65
2022/10/17 05:22:59;;;;;;;1.40;0.93;;;;;;;13.58;83.34;101829.91;6071773;29;20232;-65
2022/10/17 05:26:24;;;;;;;1.40;1.30;;;;;;;13.55;83.15;101828.34;6070449;28;20229;-66
2022/10/17 05:29:46;;;;;;;3.37;1.83;;;;;;;13.50;82.95;101832.41;6075152;29;20699;-68
2022/10/17 05:33:13;;;;;;;2.50;1.67;;;;;;;13.44;83.32;101830.25;6077955;29;20236;-66
2022/10/17 05:36:34;;;;;;;1.17;1.17;;;;;;;13.37;83.44;101835.31;6056136;29;20415;-66
2022/10/17 05:39:58;;;;;;;1.60;1.50;;;;;;;13.36;83.34;101833.63;6045155;29;20241;-64
2022/10/17 05:43:20;;;;;;;2.10;2.00;;;;;;;13.23;83.66;101832.06;6040202;29;20421;-66
2022/10/17 05:46:42;;;;;;;1.30;1.20;;;;;;;13.25;83.73;101827.38;6067896;28;20335;-66
2022/10/17 05:50:04;;;;;;;1.83;1.57;;;;;;;13.24;83.47;101834.66;6053350;28;20299;-67
2022/10/17 05:53:38;;;;;;;1.63;1.47;;;;;;;13.21;83.57;101837.63;6075751;29;20245;-68
2022/10/17 05:57:01;;;;;;;3.00;1.60;;;;;;;12.98;84.59;101829.66;6061432;29;20606;-65
2022/10/17 06:00:25;;;;;;;1.80;1.70;;;;;;;12.97;84.66;101836.09;6063370;29;20248;-67
2022/10/17 06:03:53;;;;;;;2.70;1.60;;;;;;;12.94;84.98;101826.38;6089665;29;20237;-68
2022/10/17 06:07:14;;;;;;;1.67;1.03;;;;;;;12.96;84.66;101826.22;6054287;28;20240;-67
2022/10/17 06:10:38;;;;;;;2.40;1.40;;;;;;;13.03;84.69;101838.28;6060804;29;20244;-67
2022/10/17 06:13:58;;;;;;;2.00;1.43;;;;;;;13.04;84.80;101840.00;6058366;28;20266;-67
2022/10/17 06:17:22;;;;;;;2.37;1.10;;;;;;;13.04;84.75;101832.75;6077784;28;20233;-68
2022/10/17 06:20:44;;;;;;;1.50;1.40;;;;;;;13.04;84.99;101831.88;6094222;28;20244;-68
2022/10/17 06:24:05;;;;;;;2.40;1.87;;;;;;;13.14;84.12;101831.00;6066037;29;20261;-68
2022/10/17 06:27:29;;;;;;;1.40;1.30;;;;;;;13.15;84.35;101827.31;6071284;28;20245;-68
2022/10/17 06:30:50;;;;;;;1.70;1.60;;;;;;;13.10;84.48;101826.00;6077713;29;20231;-68
2022/10/17 06:34:11;;;;;;;3.70;1.50;;;;;;;13.22;84.23;101827.66;6063616;29;20405;-68
2022/10/17 06:37:36;;;;;;;1.93;1.70;;;;;;;13.27;84.13;101831.69;6070781;29;20232;-69
2022/10/17 06:41:06;;;;;;;1.73;1.40;;;;;;;13.18;84.90;101828.91;6096768;28;20262;-70
2022/10/17 06:44:30;;;;;;;1.43;1.27;;;;;;;13.34;84.11;101813.06;6070609;28;20232;-70
2022/10/17 06:48:09;;;;;;;2.63;1.33;;;;;;;13.34;84.08;101824.75;6085762;29;20240;-67
2022/10/17 06:51:56;;;;;;;2.03;1.73;;;;;;;13.44;83.96;101819.41;6073624;29;20626;-68
2022/10/17 06:55:28;;;;;;;1.37;1.27;;;;;;;13.42;84.53;101837.63;6058176;29;20319;-69
2022/10/17 06:59:11;;;;;;;2.80;1.57;;;;;;;13.57;84.28;101825.50;6055455;28;20257;-69
2022/10/17 07:02:35;;;;;;;2.23;1.80;;;;;;;13.64;84.12;101821.28;6062289;29;20238;-68
2022/10/17 07:05:57;;;;;;;2.70;1.87;;;;;;;13.78;83.57;101826.34;6075517;29;20871;-68
2022/10/17 07:09:18;;;;;;;1.20;1.20;;;;;;;14.05;82.71;101828.50;6065553;29;20336;-68
2022/10/17 07:12:41;;;;;;;1.17;1.17;;;;;;;13.98;83.05;101820.03;6084212;29;20236;-69
2022/10/17 07:16:01;;;;;;;1.67;1.57;;;;;;;13.99;83.13;101820.91;6068854;29;20591;-68
2022/10/17 07:19:23;;;;;;;4.13;1.63;;;;;;;14.19;82.94;101829.00;6059905;28;20225;-69
2022/10/17 07:22:45;;;;;;;2.10;1.90;;;;;;;14.46;82.22;101833.84;6066705;28;20260;-68
2022/10/17 07:26:08;;;;;;;2.97;1.70;;;;;;;14.58;81.92;101837.31;6068016;28;20660;-69
2022/10/17 07:29:33;;;;;;;1.90;1.80;;;;;;;14.60;81.83;101847.03;6065652;28;20271;-68
2022/10/17 07:33:00;;;;;;;4.67;1.83;;;;;;;14.73;82.01;101863.03;6054294;28;20619;-68
2022/10/17 07:36:21;;;;;;;1.47;1.40;;;;;;;14.62;82.33;101852.31;6050043;28;20240;-67
2022/10/17 07:39:42;;;;;;;1.40;1.30;;;;;;;14.77;81.93;101845.50;6043342;28;20701;-67
2022/10/17 07:43:04;;;;;;;2.60;1.90;;;;;;;14.85;81.58;101845.66;6076419;28;20244;-67
2022/10/17 07:46:27;;;;;;;1.67;1.43;;;;;;;14.71;82.26;101854.19;6078969;29;20252;-69
2022/10/17 07:49:48;;;;;;;2.70;1.30;;;;;;;14.68;83.02;101847.19;6078325;29;20227;-68
2022/10/17 07:53:09;;;;;;;3.57;1.77;;;;;;;14.79;82.58;101844.34;6069101;28;20617;-67
2022/10/17 07:56:29;;;;;;;3.37;1.73;;;;;;;14.88;82.46;101864.38;6079357;28;20794;-68
2022/10/17 07:59:50;;;;;;;3.03;1.50;;;;;;;15.50;80.47;101851.31;6083931;28;20247;-68
2022/10/17 08:03:12;;;;;;;4.43;1.97;;;;;;;15.94;79.03;101860.69;6061000;29;20241;-68
2022/10/17 08:06:33;;;;;;;3.77;2.63;;;;;;;15.93;78.94;101857.13;6064359;28;20245;-68
2022/10/17 08:09:54;;;;;;;1.57;1.47;;;;;;;16.08;78.72;101853.94;6043571;29;20263;-68
2022/10/17 08:13:15;;;;;;;1.97;1.77;;;;;;;16.37;77.53;101841.94;6087035;29;20228;-68
2022/10/17 08:16:36;;;;;;;2.87;2.53;;;;;;;16.40;77.53;101840.75;6077465;29;20232;-66
2022/10/17 08:19:58;;;;;;;1.83;1.67;;;;;;;16.11;78.17;101837.28;6074620;29;20319;-67
2022/10/17 08:23:19;;;;;;;2.30;1.10;;;;;;;16.04;79.37;101841.63;6088681;28;20813;-68
2022/10/17 08:26:40;;;;;;;1.73;1.50;;;;;;;16.19;78.95;101832.00;6078431;29;20572;-67
2022/10/17 08:30:01;;;;;;;2.97;1.23;;;;;;;16.29;78.53;101832.81;6074131;28;20228;-69
2022/10/17 08:33:22;;;;;;;4.07;1.57;;;;;;;16.54;78.10;101827.53;6084445;29;20256;-68
2022/10/17 08:36:44;;;;;;;1.33;1.17;;;;;;;16.60;78.20;101816.06;6072882;29;20327;-69
2022/10/17 08:40:06;;;;;;;2.23;1.37;;;;;;;16.59;78.58;101824.38;6071111;29;20233;-68
2022/10/17 08:43:51;;;;;;;1.43;1.33;;;;;;;16.92;77.56;101820.16;6077401;28;20237;-67
2022/10/17 08:47:16;;;;;;;5.07;3.30;;;;;;;16.72;78.24;101812.13;6077535;29;20240;-68
2022/10/17 08:50:40;;;;;;;3.27;2.20;;;;;;;16.86;77.61;101818.03;6075033;29;20737;-68
2022/10/17 08:54:11;;;;;;;6.17;1.40;;;;;;;16.93;77.82;101813.69;6082757;28;20865;-67
2022/10/17 08:57:32;;;;;;;2.43;1.90;;;;;;;17.12;77.33;101814.41;6065981;29;20228;-69
2022/10/17 09:01:04;;;;;;;2.13;1.77;;;;;;;17.24;76.71;101810.44;6086020;29;20240;-70
2022/10/17 09:04:55;;;;;;;1.97;1.57;;;;;;;17.69;75.53;101834.03;6074002;29;20224;-68
2022/10/17 09:08:30;;;;;;;1.60;1.50;;;;;;;17.63;75.99;101838.22;6067125;29;20768;-66
2022/10/17 09:12:05;;;;;;;3.35;2.10;;;;;;;18.65;72.34;101845.53;6064788;29;20244;-68
2022/10/17 09:15:53;;;;;;;3.72;2.00;;;;;;;18.86;71.93;101834.16;6065702;28;20256;-66
2022/10/17 09:19:23;;;;;;;3.67;2.10;;;;;;;19.25;70.06;101835.28;6066669;29;20244;-69
2022/10/17 09:22:50;;;;;;;1.52;1.30;;;;;;;20.00;67.93;101820.44;6063252;29;20235;-67
2022/10/17 09:26:17;;;;;;;3.22;1.85;;;;;;;19.64;69.08;101822.69;6079186;28;20240;-67
2022/10/17 09:29:47;;;;;;;2.22;2.03;;;;;;;19.65;68.51;101829.03;6068886;29;20251;-68
2022/10/17 09:33:12;;;;;;;2.83;2.20;;;;;;;19.06;71.22;101822.78;6073106;28;20584;-68
2022/10/17 09:36:34;;;;;;;1.20;1.10;;;;;;;18.96;72.31;101837.63;6048049;29;20296;-68
2022/10/17 09:39:55;;;;;;;1.60;1.20;;;;;;;18.82;73.50;101841.84;6066447;29;20240;-68
2022/10/17 09:43:16;;;;;;;2.10;1.15;;;;;;;19.40;71.63;101839.09;6074062;29;20696;-66
2022/10/17 09:46:39;;;;;;;2.70;1.40;;;;;;;19.20;72.27;101829.47;6080221;29;20344;-67
2022/10/17 09:50:01;;;;;;;1.63;1.52;;;;;;;19.27;72.47;101824.19;6078802;29;20240;-68
2022/10/17 09:53:25;;;;;;;1.30;1.20;;;;;;;20.00;70.56;101814.94;6064088;29;20523;-68
2022/10/17 09:57:00;;;;;;;1.40;1.25;;;;;;;20.85;67.76;101816.88;6069308;28;20248;-68
2022/10/17 10:00:23;;;;;;;1.15;1.15;;;;;;;19.91;70.91;101821.47;6078943;28;20243;-69
2022/10/17 10:03:45;;;;;;;3.47;1.52;;;;;;;19.51;72.63;101827.81;6062345;29;20327;-68
2022/10/17 10:07:12;;;;;;;8.18;2.03;;;;;;;19.46;73.24;101821.16;6079359;29;20232;-68
2022/10/17 10:10:33;;;;;;;1.70;1.25;;;;;;;19.58;73.35;101828.00;6079528;29;20228;-68
2022/10/17 10:13:54;;;;;;;1.77;1.50;;;;;;;20.12;71.09;101824.50;6071183;29;20233;-67
2022/10/17 10:17:28;;;;;;;3.40;1.33;;;;;;;20.05;72.03;101830.84;6082095;29;20241;-67
2022/10/17 10:21:03;;;;;;;2.97;1.70;;;;;;;19.91;72.54;101832.41;6082303;28;20240;-67
2022/10/17 10:24:26;;;;;;;1.98;1.85;;;;;;;20.05;72.01;101839.06;6065592;29;20603;-68
2022/10/17 10:27:47;;;;;;;1.92;1.67;;;;;;;20.52;70.75;101835.38;6091045;29;20614;-68
2022/10/17 10:31:09;;;;;;;1.98;1.48;;;;;;;20.77;69.37;101840.72;6080995;29;20236;-67
2022/10/17 10:34:31;;;;;;;3.10;1.27;;;;;;;21.23;68.07;101843.41;6082520;29;20260;-67
2022/10/17 10:37:56;;;;;;;1.55;1.30;;;;;;;21.37;68.03;101839.00;6092697;29;20239;-67
2022/10/17 10:41:17;;;;;;;3.75;1.58;;;;;;;21.33;67.67;101846.75;6075422;29;20243;-68
2022/10/17 10:44:40;;;;;;;3.67;1.92;;;;;;;20.98;68.84;101839.06;6076544;29;20331;-68
2022/10/17 10:48:05;;;;;;;3.15;1.85;;;;;;;20.36;71.82;101835.41;6052408;29;20241;-67
2022/10/17 10:51:32;;;;;;;7.90;1.48;;;;;;;20.15;72.70;101837.00;6077069;29;20236;-67
2022/10/17 10:55:03;;;;;;;2.65;1.38;;;;;;;19.97;73.32;101834.44;6073007;28;20240;-67
2022/10/17 10:58:34;;;;;;;2.33;1.48;;;;;;;19.89;73.80;101840.81;6076534;29;20224;-67
2022/10/17 11:02:01;;;;;;;2.67;2.47;;;;;;;19.91;74.20;101843.34;6071425;29;20224;-68
2022/10/17 11:05:30;;;;;;;5.05;1.83;;;;;;;19.89;74.46;101857.22;6080051;28;20227;-69
2022/10/17 11:09:03;;;;;;;3.72;1.90;;;;;;;19.90;73.99;101852.63;6075915;29;20239;-69
2022/10/17 11:12:30;;;;;;;2.00;1.90;;;;;;;19.99;72.36;101851.56;6055391;28;20240;-70
2022/10/17 11:15:56;;;;;;;1.70;1.60;;;;;;;20.08;72.45;101849.66;6070893;28;20252;-68
2022/10/17 11:19:25;;;;;;;2.30;1.83;;;;;;;20.14;72.06;101840.75;6063696;28;20248;-69
2022/10/17 11:22:48;;;;;;;3.72;2.33;;;;;;;20.17;71.88;101859.56;6062404;28;20556;-69
2022/10/17 11:26:16;;;;;;;2.00;1.40;;;;;;;20.27;71.34;101852.91;6066172;28;20319;-69
2022/10/17 11:29:41;;;;;;;5.05;2.17;;;;;;;20.41;70.83;101851.31;6055516;28;20243;-69
2022/10/17 11:33:05;;;;;;;6.25;1.73;;;;;;;20.34;70.79;101859.38;6078820;29;20233;-68
2022/10/17 11:36:30;;;;;;;3.40;2.35;;;;;;;20.34;70.76;101862.13;6064472;29;20233;-68
2022/10/17 11:39:54;;;;;;;2.13;1.30;;;;;;;20.38;70.94;101857.16;6050496;29;20240;-69
2022/10/17 11:43:20;;;;;;;2.75;2.33;;;;;;;20.44;70.64;101853.72;6074753;29;20614;-69
2022/10/17 11:46:46;;;;;;;4.00;2.25;;;;;;;20.43;70.48;101847.38;6042193;29;20237;-68
2022/10/17 11:50:18;;;;;;;5.40;1.50;;;;;;;20.38;70.62;101838.00;6056620;28;20330;-68
2022/10/17 11:53:47;;;;;;;2.95;1.10;;;;;;;20.30;70.96;101843.47;6051977;28;20241;-67
2022/10/17 11:57:19;;;;;;;2.38;1.40;;;;;;;20.25;71.58;101832.19;6082716;29;20236;-67
2022/10/17 12:00:52;;;;;;;2.58;1.52;;;;;;;20.13;71.74;101819.88;6086139;28;20430;-68
2022/10/17 12:04:26;;;;;;;2.05;1.67;;;;;;;20.07;72.85;101856.19;6079749;29;20243;-69
2022/10/17 12:07:52;;;;;;;3.63;2.30;;;;;;;19.85;74.60;101877.75;6085819;29;20233;-68
2022/10/17 12:11:23;;;;;;;2.38;2.17;;;;;;;19.72;76.15;101871.06;6088590;28;20244;-69
2022/10/17 12:14:45;;;;;;;1.55;1.45;;;;;;;19.67;76.67;101882.53;6083799;29;20244;-69
2022/10/17 12:18:15;;;;;;;4.57;2.17;;;;;;;19.67;76.70;101892.63;6091083;29;20260;-69
2022/10/17 12:21:57;;;;;;;4.97;2.17;;;;;;;19.54;77.36;101900.50;6079519;29;20231;-67
2022/10/17 12:25:20;;;;;;;4.22;2.08;;;;;;;19.44;77.77;101900.63;6097615;28;20609;-68
2022/10/17 12:28:43;;;;;;;10.77;2.92;;;;;;;19.41;77.52;101924.72;6077334;29;20240;-67
2022/10/17 12:32:11;;;;;;;3.15;2.20;;;;;;;19.38;77.73;101903.22;6075895;29;20623;-68
2022/10/17 12:35:34;;;;;;;2.75;2.55;;;;;;;19.36;78.28;101883.38;6074742;28;20302;-67
2022/10/17 12:39:29;;;;;;;3.00;1.65;;;;;;;19.36;78.07;101880.63;6060628;29;20278;-69
2022/10/17 12:42:51;;;;;;;4.72;2.30;;;;;;;19.45;78.01;101879.59;6065951;29;20254;-68
2022/10/17 12:46:12;;;;;;;1.60;1.50;;;;;;;19.43;78.49;101893.47;6059774;29;20505;-68
2022/10/17 12:49:42;;;;;;;4.15;2.30;;;;;;;19.38;78.71;101903.22;6062217;29;20985;-67
2022/10/17 12:53:07;;;;;;;4.65;2.70;;;;;;;19.39;78.54;101903.03;6084012;29;20229;-67
2022/10/17 12:56:36;;;;;;;4.90;1.70;;;;;;;19.36;78.68;101916.19;6071912;29;20224;-68
2022/10/17 13:00:01;;;;;;;6.07;2.47;;;;;;;19.28;78.78;101913.38;6070961;29;20240;-68
2022/10/17 13:03:25;;;;;;;2.35;1.83;;;;;;;19.20;79.03;101922.44;6082350;28;20232;-67
2022/10/17 13:06:48;;;;;;;3.25;2.42;;;;;;;19.19;79.62;101925.34;6076641;29;20240;-67
2022/10/17 13:10:20;;;;;;;3.30;2.53;;;;;;;19.12;79.45;101930.59;6066363;29;20244;-69
2022/10/17 13:13:44;;;;;;;3.78;2.00;;;;;;;19.04;80.17;101952.44;6065346;28;20488;-67
2022/10/17 13:17:07;;;;;;;3.97;2.42;;;;;;;18.98;80.77;101994.94;6056032;28;20241;-66
2022/10/17 13:20:30;;;;;;;2.70;2.00;;;;;;;18.78;82.84;101995.34;6054546;29;20242;-70
2022/10/17 13:23:53;;;;;;;2.13;1.75;;;;;;;18.24;87.77;101955.53;6055746;28;20237;-67
2022/10/17 13:27:29;;;;;;;4.50;3.10;;;;;;;18.18;88.79;101927.00;6052121;29;20230;-68
2022/10/17 13:30:50;;;;;;;3.75;2.67;;;;;;;18.17;90.15;101936.19;6069026;29;20267;-69
2022/10/17 13:34:18;;;;;;;5.00;3.92;;;;;;;18.09;90.49;101941.59;6063991;29;20541;-67
2022/10/17 13:37:40;;;;;;;2.80;2.20;;;;;;;18.10;90.72;101953.38;6071182;28;20252;-68
2022/10/17 13:41:03;;;;;;;3.72;2.40;;;;;;;17.99;91.79;101948.16;6061457;28;20565;-67
2022/10/17 13:44:26;;;;;;;3.08;2.60;;;;;;;18.02;91.78;101945.97;6039052;29;20229;-68
2022/10/17 13:47:47;;;;;;;6.72;3.28;;;;;;;17.94;92.20;101967.72;6085804;29;20329;-67
2022/10/17 13:51:09;;;;;;;20.60;5.68;;;;;;;17.89;93.05;101983.75;6070362;29;20244;-68
2022/10/17 13:54:36;;;;;;;4.30;2.55;;;;;;;17.78;93.44;102003.06;6068438;29;20241;-67
2022/10/17 13:58:09;;;;;;;4.68;2.92;;;;;;;17.69;94.60;102000.41;6078719;29;20233;-67
2022/10/17 14:01:31;;;;;;;3.60;2.40;;;;;;;17.76;94.18;101998.75;6075475;29;20240;-66
2022/10/17 14:05:00;;;;;;;3.05;2.10;;;;;;;17.77;94.47;101973.22;6079145;28;20228;-68
2022/10/17 14:08:22;;;;;;;4.25;3.47;;;;;;;17.74;94.58;101968.06;6078062;28;20236;-67
2022/10/17 14:11:45;;;;;;;42.78;4.95;;;;;;;17.69;94.83;101979.44;6055163;29;20237;-68
2022/10/17 14:15:07;;;;;;;8.95;4.20;;;;;;;17.67;95.14;101972.44;6063340;29;20236;-68
2022/10/17 14:18:31;;;;;;;6.22;3.53;;;;;;;17.67;95.47;101961.53;6078553;29;20233;-69
2022/10/17 14:21:53;;;;;;;2.63;2.20;;;;;;;17.68;95.26;101944.13;6088008;29;20252;-68
2022/10/17 14:25:34;;;;;;;15.13;3.42;;;;;;;17.71;94.98;101939.22;6080027;29;20235;-68
2022/10/17 14:29:05;;;;;;;6.07;2.53;;;;;;;17.83;94.79;101943.44;6058530;29;20233;-67
2022/10/17 14:32:27;;;;;;;10.35;3.03;;;;;;;17.78;94.47;101940.31;6072147;28;20236;-67
2022/10/17 14:35:50;;;;;;;3.28;2.25;;;;;;;17.77;94.79;101949.53;6080765;29;20363;-68
2022/10/17 14:39:19;;;;;;;5.68;2.75;;;;;;;17.82;94.63;101959.94;6075264;29;20905;-66
2022/10/17 14:42:42;;;;;;;2.92;2.63;;;;;;;17.81;94.72;101974.63;6060292;29;20236;-68
2022/10/17 14:46:04;;;;;;;3.63;2.92;;;;;;;17.72;95.35;101989.19;6077429;28;20553;-67
2022/10/17 14:49:35;;;;;;;3.45;2.22;;;;;;;17.71;95.58;101998.38;6037385;28;20238;-67
2022/10/17 14:53:01;;;;;;;2.47;2.28;;;;;;;17.65;95.75;102015.38;6066053;29;20565;-66
2022/10/17 14:56:23;;;;;;;2.90;2.47;;;;;;;17.69;95.65;102020.34;6068137;29;20847;-66
2022/10/17 14:59:45;;;;;;;6.75;3.00;;;;;;;17.74;95.27;102031.66;6056573;29;20244;-66
2022/10/17 15:03:06;;;;;;;4.55;3.28;;;;;;;17.72;95.52;102030.97;6051448;29;20667;-67
2022/10/17 15:06:29;;;;;;;2.58;2.15;;;;;;;17.68;95.93;102032.28;6051904;29;20232;-66
2022/10/17 15:09:52;;;;;;;2.65;2.45;;;;;;;17.67;95.56;102038.72;6056650;29;20244;-65
2022/10/17 15:13:13;;;;;;;5.05;3.15;;;;;;;17.66;95.57;102049.81;6074357;29;20285;-64
2022/10/17 15:16:38;;;;;;;3.17;2.92;;;;;;;17.60;96.08;102054.00;6070365;28;21247;-66
2022/10/17 15:19:59;;;;;;;2.30;2.10;;;;;;;17.63;96.14;102059.16;6052571;28;20224;-66
2022/10/17 15:23:20;;;;;;;3.60;2.92;;;;;;;17.62;96.06;102057.44;6074612;29;20233;-65
2022/10/17 15:26:41;;;;;;;4.90;4.50;;;;;;;17.61;96.29;102063.06;6062188;28;20233;-64
2022/10/17 15:30:02;;;;;;;3.40;3.10;;;;;;;17.59;96.22;102068.66;6068657;29;20244;-67
2022/10/17 15:33:24;;;;;;;5.93;4.35;;;;;;;17.60;96.33;102075.84;6054711;29;20241;-66
2022/10/17 15:36:49;;;;;;;2.92;2.70;;;;;;;17.62;96.15;102079.25;6076281;29;20662;-67
2022/10/17 15:40:14;;;;;;;3.65;2.78;;;;;;;17.54;96.38;102076.44;6066973;29;20232;-66
2022/10/17 15:43:35;;;;;;;5.68;3.75;;;;;;;17.52;96.46;102083.91;6080463;28;21808;-65
2022/10/17 15:46:57;;;;;;;3.00;2.80;;;;;;;17.50;96.24;102080.47;6057196;29;21177;-67
2022/10/17 15:50:20;;;;;;;3.22;2.92;;;;;;;17.51;95.75;102074.88;6069257;29;20237;-66
2022/10/17 15:53:41;;;;;;;4.15;2.88;;;;;;;17.53;95.35;102091.94;6058306;29;20261;-67
2022/10/17 15:57:02;;;;;;;6.80;3.13;;;;;;;17.50;95.22;102088.66;6065568;29;20608;-65